sensor_id;sensor_type;location;lat;lon;timestamp;pressure;altitude;pressure_sealevel;temperature;humidity
75039;BME280;63609;49.992;14.512;2024-02-21T00:00:17;98852.41;;;4.94;62.24
75039;BME280;63609;49.992;14.512;2024-02-21T00:02:45;98852.91;;;5.27;60.85
75039;BME280;63609;49.992;14.512;2024-02-21T00:05:12;98848.63;;;5.25;60.93
75039;BME280;63609;49.992;14.512;2024-02-21T00:07:40;98846.66;;;5.14;61.17
75039;BME280;63609;49.992;14.512;2024-02-21T00:10:07;98839.22;;;4.92;61.86
75039;BME280;63609;49.992;14.512;2024-02-21T00:12:35;98838.28;;;5.07;61.44
75039;BME280;63609;49.992;14.512;2024-02-21T00:15:02;98836.59;;;5.06;61.62
75039;BME280;63609;49.992;14.512;2024-02-21T00:17:29;98827.25;;;4.86;61.42
75039;BME280;63609;49.992;14.512;2024-02-21T00:19:57;98824.63;;;4.72;62.61
75039;BME280;63609;49.992;14.512;2024-02-21T00:22:23;98822.50;;;4.92;61.64
75039;BME280;63609;49.992;14.512;2024-02-21T00:24:51;98811.75;;;4.95;61.93
75039;BME280;63609;49.992;14.512;2024-02-21T00:27:18;98819.25;;;5.15;61.44
75039;BME280;63609;49.992;14.512;2024-02-21T00:29:44;98812.28;;;5.41;60.65
75039;BME280;63609;49.992;14.512;2024-02-21T00:32:11;98803.88;;;5.61;59.98
75039;BME280;63609;49.992;14.512;2024-02-21T00:34:37;98808.31;;;5.07;61.69
75039;BME280;63609;49.992;14.512;2024-02-21T00:37:04;98806.28;;;4.83;62.03
75039;BME280;63609;49.992;14.512;2024-02-21T00:39:33;98801.16;;;5.22;61.48
75039;BME280;63609;49.992;14.512;2024-02-21T00:42:00;98797.59;;;4.81;62.55
75039;BME280;63609;49.992;14.512;2024-02-21T00:44:27;98797.47;;;5.24;60.78
75039;BME280;63609;49.992;14.512;2024-02-21T00:46:54;98792.97;;;5.26;60.99
75039;BME280;63609;49.992;14.512;2024-02-21T00:49:21;98790.47;;;5.23;61.42
75039;BME280;63609;49.992;14.512;2024-02-21T00:51:48;98784.09;;;5.13;61.94
75039;BME280;63609;49.992;14.512;2024-02-21T00:54:14;98784.63;;;5.18;61.42
75039;BME280;63609;49.992;14.512;2024-02-21T00:56:42;98782.00;;;4.77;62.78
75039;BME280;63609;49.992;14.512;2024-02-21T00:59:09;98779.06;;;4.81;63.06
75039;BME280;63609;49.992;14.512;2024-02-21T01:03:30;98776.09;;;4.16;65.21
75039;BME280;63609;49.992;14.512;2024-02-21T01:05:57;98773.03;;;4.94;62.68
75039;BME280;63609;49.992;14.512;2024-02-21T01:08:24;98776.94;;;4.60;62.92
75039;BME280;63609;49.992;14.512;2024-02-21T01:10:50;98775.13;;;4.60;64.08
75039;BME280;63609;49.992;14.512;2024-02-21T01:13:17;98768.16;;;4.59;63.45
75039;BME280;63609;49.992;14.512;2024-02-21T01:15:44;98769.78;;;4.89;62.85
75039;BME280;63609;49.992;14.512;2024-02-21T01:18:11;98772.78;;;4.55;63.74
75039;BME280;63609;49.992;14.512;2024-02-21T01:20:38;98774.69;;;4.68;63.44
75039;BME280;63609;49.992;14.512;2024-02-21T01:23:04;98769.31;;;4.96;62.79
75039;BME280;63609;49.992;14.512;2024-02-21T01:25:31;98761.91;;;4.74;63.05
75039;BME280;63609;49.992;14.512;2024-02-21T01:27:58;98752.97;;;4.48;63.94
75039;BME280;63609;49.992;14.512;2024-02-21T01:30:24;98751.66;;;4.41;64.36
75039;BME280;63609;49.992;14.512;2024-02-21T01:32:51;98748.34;;;4.93;62.79
75039;BME280;63609;49.992;14.512;2024-02-21T01:35:18;98744.53;;;4.70;63.08
75039;BME280;63609;49.992;14.512;2024-02-21T01:37:45;98737.16;;;4.75;63.43
75039;BME280;63609;49.992;14.512;2024-02-21T01:40:12;98741.78;;;4.72;63.60
75039;BME280;63609;49.992;14.512;2024-02-21T01:42:39;98735.56;;;4.73;63.37
75039;BME280;63609;49.992;14.512;2024-02-21T01:45:08;98733.41;;;4.65;63.59
75039;BME280;63609;49.992;14.512;2024-02-21T01:47:36;98733.88;;;4.58;64.20
75039;BME280;63609;49.992;14.512;2024-02-21T01:50:04;98731.28;;;4.29;64.36
75039;BME280;63609;49.992;14.512;2024-02-21T01:52:31;98725.91;;;4.31;65.09
75039;BME280;63609;49.992;14.512;2024-02-21T01:55:00;98714.16;;;4.49;64.19
75039;BME280;63609;49.992;14.512;2024-02-21T01:57:27;98722.94;;;4.64;63.97
75039;BME280;63609;49.992;14.512;2024-02-21T01:59:55;98720.28;;;4.49;63.80
75039;BME280;63609;49.992;14.512;2024-02-21T02:02:22;98715.22;;;4.32;64.96
75039;BME280;63609;49.992;14.512;2024-02-21T02:04:49;98705.81;;;4.69;63.45
75039;BME280;63609;49.992;14.512;2024-02-21T02:07:16;98701.31;;;4.43;64.40
75039;BME280;63609;49.992;14.512;2024-02-21T02:09:43;98704.50;;;4.62;63.90
75039;BME280;63609;49.992;14.512;2024-02-21T02:12:09;98701.66;;;4.65;63.83
75039;BME280;63609;49.992;14.512;2024-02-21T02:14:36;98695.75;;;4.47;63.98
75039;BME280;63609;49.992;14.512;2024-02-21T02:17:03;98704.06;;;4.82;62.84
75039;BME280;63609;49.992;14.512;2024-02-21T02:19:30;98698.81;;;4.68;64.17
75039;BME280;63609;49.992;14.512;2024-02-21T02:22:08;98698.94;;;4.52;64.50
75039;BME280;63609;49.992;14.512;2024-02-21T02:24:36;98694.63;;;4.37;64.57
75039;BME280;63609;49.992;14.512;2024-02-21T02:27:03;98686.97;;;4.47;64.97
75039;BME280;63609;49.992;14.512;2024-02-21T02:29:32;98686.66;;;4.66;63.85
75039;BME280;63609;49.992;14.512;2024-02-21T02:31:59;98682.97;;;4.95;62.88
75039;BME280;63609;49.992;14.512;2024-02-21T02:34:25;98681.50;;;5.16;62.77
75039;BME280;63609;49.992;14.512;2024-02-21T02:36:52;98674.28;;;4.66;63.42
75039;BME280;63609;49.992;14.512;2024-02-21T02:39:21;98666.78;;;4.73;62.88
75039;BME280;63609;49.992;14.512;2024-02-21T02:41:47;98672.69;;;4.64;63.68
75039;BME280;63609;49.992;14.512;2024-02-21T02:44:15;98663.50;;;4.69;63.64
75039;BME280;63609;49.992;14.512;2024-02-21T02:46:43;98661.91;;;4.67;63.88
75039;BME280;63609;49.992;14.512;2024-02-21T02:49:09;98659.69;;;4.46;64.19
75039;BME280;63609;49.992;14.512;2024-02-21T02:51:36;98660.09;;;4.67;63.25
75039;BME280;63609;49.992;14.512;2024-02-21T02:54:04;98657.47;;;4.53;63.55
75039;BME280;63609;49.992;14.512;2024-02-21T02:56:30;98649.16;;;4.59;63.89
75039;BME280;63609;49.992;14.512;2024-02-21T02:58:57;98647.81;;;4.66;63.67
75039;BME280;63609;49.992;14.512;2024-02-21T03:01:24;98643.13;;;4.84;63.01
75039;BME280;63609;49.992;14.512;2024-02-21T03:03:51;98644.72;;;4.60;63.58
75039;BME280;63609;49.992;14.512;2024-02-21T03:06:17;98639.22;;;4.36;63.77
75039;BME280;63609;49.992;14.512;2024-02-21T03:08:44;98644.03;;;4.43;63.83
75039;BME280;63609;49.992;14.512;2024-02-21T03:11:11;98636.84;;;4.45;63.72
75039;BME280;63609;49.992;14.512;2024-02-21T03:13:38;98638.09;;;4.26;64.19
75039;BME280;63609;49.992;14.512;2024-02-21T03:16:04;98639.47;;;4.45;64.64
75039;BME280;63609;49.992;14.512;2024-02-21T03:18:32;98639.16;;;4.23;64.64
75039;BME280;63609;49.992;14.512;2024-02-21T03:20:59;98639.56;;;4.44;63.72
75039;BME280;63609;49.992;14.512;2024-02-21T03:23:26;98637.44;;;4.36;64.29
75039;BME280;63609;49.992;14.512;2024-02-21T03:25:53;98640.88;;;4.51;64.18
75039;BME280;63609;49.992;14.512;2024-02-21T03:28:21;98641.88;;;4.36;64.33
75039;BME280;63609;49.992;14.512;2024-02-21T03:30:47;98634.34;;;4.30;64.56
75039;BME280;63609;49.992;14.512;2024-02-21T03:33:14;98633.88;;;4.50;63.98
75039;BME280;63609;49.992;14.512;2024-02-21T03:35:41;98638.78;;;4.83;63.44
75039;BME280;63609;49.992;14.512;2024-02-21T03:38:08;98627.25;;;4.57;63.70
75039;BME280;63609;49.992;14.512;2024-02-21T03:40:35;98630.41;;;4.49;64.42
75039;BME280;63609;49.992;14.512;2024-02-21T03:43:02;98626.03;;;4.63;63.17
75039;BME280;63609;49.992;14.512;2024-02-21T03:45:29;98623.78;;;4.30;64.39
75039;BME280;63609;49.992;14.512;2024-02-21T03:47:56;98632.53;;;4.57;63.54
75039;BME280;63609;49.992;14.512;2024-02-21T03:50:22;98631.31;;;4.36;64.32
75039;BME280;63609;49.992;14.512;2024-02-21T03:52:49;98624.97;;;4.24;64.53
75039;BME280;63609;49.992;14.512;2024-02-21T03:55:16;98626.25;;;4.72;63.35
75039;BME280;63609;49.992;14.512;2024-02-21T03:57:44;98615.44;;;4.36;64.18
75039;BME280;63609;49.992;14.512;2024-02-21T04:00:11;98615.38;;;4.50;63.86
75039;BME280;63609;49.992;14.512;2024-02-21T04:02:38;98620.56;;;4.51;64.00
75039;BME280;63609;49.992;14.512;2024-02-21T04:05:04;98612.09;;;4.46;64.27
75039;BME280;63609;49.992;14.512;2024-02-21T04:07:32;98612.16;;;4.18;65.13
75039;BME280;63609;49.992;14.512;2024-02-21T04:09:59;98607.09;;;4.42;64.53
75039;BME280;63609;49.992;14.512;2024-02-21T04:12:26;98618.94;;;4.36;64.48
75039;BME280;63609;49.992;14.512;2024-02-21T04:14:52;98617.69;;;4.42;64.00
75039;BME280;63609;49.992;14.512;2024-02-21T04:17:19;98615.25;;;4.39;64.50
75039;BME280;63609;49.992;14.512;2024-02-21T04:19:46;98617.16;;;4.64;64.30
75039;BME280;63609;49.992;14.512;2024-02-21T04:22:13;98616.19;;;4.38;64.39
75039;BME280;63609;49.992;14.512;2024-02-21T04:24:39;98617.88;;;4.39;64.84
75039;BME280;63609;49.992;14.512;2024-02-21T04:27:06;98613.56;;;4.65;63.62
75039;BME280;63609;49.992;14.512;2024-02-21T04:29:33;98614.34;;;4.52;64.03
75039;BME280;63609;49.992;14.512;2024-02-21T04:32:01;98614.09;;;4.43;64.30
75039;BME280;63609;49.992;14.512;2024-02-21T04:34:29;98611.97;;;4.21;64.80
75039;BME280;63609;49.992;14.512;2024-02-21T04:36:57;98608.31;;;4.09;65.45
75039;BME280;63609;49.992;14.512;2024-02-21T04:39:23;98603.81;;;3.97;65.03
75039;BME280;63609;49.992;14.512;2024-02-21T04:41:55;98599.00;;;4.04;65.52
75039;BME280;63609;49.992;14.512;2024-02-21T04:44:21;98590.88;;;4.07;65.49
75039;BME280;63609;49.992;14.512;2024-02-21T04:46:49;98591.81;;;4.06;65.62
75039;BME280;63609;49.992;14.512;2024-02-21T04:49:16;98591.53;;;4.10;65.37
75039;BME280;63609;49.992;14.512;2024-02-21T04:51:43;98595.31;;;4.06;65.08
75039;BME280;63609;49.992;14.512;2024-02-21T04:54:10;98587.59;;;4.03;65.94
75039;BME280;63609;49.992;14.512;2024-02-21T04:56:37;98583.19;;;4.16;65.43
75039;BME280;63609;49.992;14.512;2024-02-21T04:59:03;98584.91;;;4.17;65.28
75039;BME280;63609;49.992;14.512;2024-02-21T05:01:30;98583.59;;;4.10;65.19
75039;BME280;63609;49.992;14.512;2024-02-21T05:03:57;98587.44;;;4.19;65.27
75039;BME280;63609;49.992;14.512;2024-02-21T05:06:24;98585.44;;;3.96;65.71
75039;BME280;63609;49.992;14.512;2024-02-21T05:08:51;98585.34;;;3.97;65.92
75039;BME280;63609;49.992;14.512;2024-02-21T05:11:17;98589.53;;;4.14;64.93
75039;BME280;63609;49.992;14.512;2024-02-21T05:13:44;98585.44;;;3.96;66.15
75039;BME280;63609;49.992;14.512;2024-02-21T05:16:12;98589.22;;;4.18;65.67
75039;BME280;63609;49.992;14.512;2024-02-21T05:18:40;98581.69;;;4.12;65.21
75039;BME280;63609;49.992;14.512;2024-02-21T05:21:09;98581.31;;;4.18;64.97
75039;BME280;63609;49.992;14.512;2024-02-21T05:23:36;98581.25;;;4.06;65.64
75039;BME280;63609;49.992;14.512;2024-02-21T05:26:03;98574.38;;;4.03;65.57
75039;BME280;63609;49.992;14.512;2024-02-21T05:28:30;98577.78;;;4.32;65.18
75039;BME280;63609;49.992;14.512;2024-02-21T05:30:57;98569.25;;;4.14;65.16
75039;BME280;63609;49.992;14.512;2024-02-21T05:33:25;98574.97;;;4.21;64.99
75039;BME280;63609;49.992;14.512;2024-02-21T05:35:51;98561.38;;;4.00;65.43
75039;BME280;63609;49.992;14.512;2024-02-21T05:38:18;98558.72;;;4.00;66.17
75039;BME280;63609;49.992;14.512;2024-02-21T05:40:45;98559.09;;;3.94;65.90
75039;BME280;63609;49.992;14.512;2024-02-21T05:43:13;98557.81;;;4.14;65.96
75039;BME280;63609;49.992;14.512;2024-02-21T05:45:40;98559.28;;;4.05;65.95
75039;BME280;63609;49.992;14.512;2024-02-21T05:48:07;98554.19;;;4.02;65.83
75039;BME280;63609;49.992;14.512;2024-02-21T05:50:34;98559.81;;;4.10;65.38
75039;BME280;63609;49.992;14.512;2024-02-21T05:53:01;98567.16;;;4.19;65.30
75039;BME280;63609;49.992;14.512;2024-02-21T05:55:27;98558.91;;;3.97;65.89
75039;BME280;63609;49.992;14.512;2024-02-21T05:57:55;98564.41;;;4.21;64.97
75039;BME280;63609;49.992;14.512;2024-02-21T06:00:22;98563.09;;;4.14;65.28
75039;BME280;63609;49.992;14.512;2024-02-21T06:02:49;98567.78;;;4.23;65.21
75039;BME280;63609;49.992;14.512;2024-02-21T06:05:16;98561.38;;;4.00;65.63
75039;BME280;63609;49.992;14.512;2024-02-21T06:07:43;98563.09;;;4.28;65.52
75039;BME280;63609;49.992;14.512;2024-02-21T06:10:09;98554.94;;;4.31;65.25
75039;BME280;63609;49.992;14.512;2024-02-21T06:12:36;98551.25;;;4.34;64.87
75039;BME280;63609;49.992;14.512;2024-02-21T06:15:03;98550.59;;;4.03;66.14
75039;BME280;63609;49.992;14.512;2024-02-21T06:17:31;98542.38;;;4.35;64.57
75039;BME280;63609;49.992;14.512;2024-02-21T06:19:58;98549.94;;;4.00;65.93
75039;BME280;63609;49.992;14.512;2024-02-21T06:22:25;98554.75;;;4.34;65.06
75039;BME280;63609;49.992;14.512;2024-02-21T06:24:51;98550.00;;;4.12;65.63
75039;BME280;63609;49.992;14.512;2024-02-21T06:27:20;98545.25;;;4.17;65.22
75039;BME280;63609;49.992;14.512;2024-02-21T06:29:47;98550.84;;;4.40;65.17
75039;BME280;63609;49.992;14.512;2024-02-21T06:32:14;98546.63;;;4.37;65.03
75039;BME280;63609;49.992;14.512;2024-02-21T06:34:40;98554.28;;;4.01;66.02
75039;BME280;63609;49.992;14.512;2024-02-21T06:37:07;98545.69;;;4.24;65.86
75039;BME280;63609;49.992;14.512;2024-02-21T06:39:34;98546.31;;;4.54;64.86
75039;BME280;63609;49.992;14.512;2024-02-21T06:42:03;98539.47;;;4.25;65.76
75039;BME280;63609;49.992;14.512;2024-02-21T06:44:30;98544.94;;;4.49;65.07
75039;BME280;63609;49.992;14.512;2024-02-21T06:46:58;98542.63;;;4.57;64.98
75039;BME280;63609;49.992;14.512;2024-02-21T06:49:26;98546.63;;;4.50;65.02
75039;BME280;63609;49.992;14.512;2024-02-21T06:51:53;98552.09;;;4.61;64.41
75039;BME280;63609;49.992;14.512;2024-02-21T06:54:19;98546.50;;;4.66;64.33
75039;BME280;63609;49.992;14.512;2024-02-21T06:56:47;98538.25;;;4.83;63.91
75039;BME280;63609;49.992;14.512;2024-02-21T06:59:14;98543.38;;;4.59;64.81
75039;BME280;63609;49.992;14.512;2024-02-21T07:01:48;98545.22;;;4.32;64.77
75039;BME280;63609;49.992;14.512;2024-02-21T07:04:15;98544.53;;;4.95;63.07
75039;BME280;63609;49.992;14.512;2024-02-21T07:06:42;98554.47;;;5.04;62.61
75039;BME280;63609;49.992;14.512;2024-02-21T07:09:09;98549.72;;;5.09;62.90
75039;BME280;63609;49.992;14.512;2024-02-21T07:11:36;98542.84;;;4.94;63.40
75039;BME280;63609;49.992;14.512;2024-02-21T07:14:03;98543.03;;;5.03;63.90
75039;BME280;63609;49.992;14.512;2024-02-21T07:16:30;98537.66;;;5.05;63.17
75039;BME280;63609;49.992;14.512;2024-02-21T07:18:59;98529.91;;;5.02;63.70
75039;BME280;63609;49.992;14.512;2024-02-21T07:21:26;98537.13;;;5.12;63.26
75039;BME280;63609;49.992;14.512;2024-02-21T07:23:54;98535.09;;;5.03;64.13
75039;BME280;63609;49.992;14.512;2024-02-21T07:26:21;98527.47;;;4.86;64.58
75039;BME280;63609;49.992;14.512;2024-02-21T07:28:48;98526.97;;;4.94;64.28
75039;BME280;63609;49.992;14.512;2024-02-21T07:31:15;98525.59;;;5.01;64.43
75039;BME280;63609;49.992;14.512;2024-02-21T07:33:42;98515.91;;;4.87;64.42
75039;BME280;63609;49.992;14.512;2024-02-21T07:36:10;98512.84;;;4.68;65.78
75039;BME280;63609;49.992;14.512;2024-02-21T07:38:37;98517.09;;;4.70;65.32
75039;BME280;63609;49.992;14.512;2024-02-21T07:41:03;98515.09;;;4.99;64.82
75039;BME280;63609;49.992;14.512;2024-02-21T07:43:30;98519.31;;;5.14;64.35
75039;BME280;63609;49.992;14.512;2024-02-21T07:45:57;98519.94;;;4.93;64.16
75039;BME280;63609;49.992;14.512;2024-02-21T07:48:24;98522.28;;;5.35;63.12
75039;BME280;63609;49.992;14.512;2024-02-21T07:50:51;98532.78;;;4.99;64.01
75039;BME280;63609;49.992;14.512;2024-02-21T07:53:19;98525.91;;;5.34;63.20
75039;BME280;63609;49.992;14.512;2024-02-21T07:55:46;98538.59;;;5.16;63.44
75039;BME280;63609;49.992;14.512;2024-02-21T07:58:13;98537.41;;;4.82;64.69
75039;BME280;63609;49.992;14.512;2024-02-21T08:00:40;98529.34;;;4.84;64.42
75039;BME280;63609;49.992;14.512;2024-02-21T08:03:07;98517.50;;;4.64;65.61
75039;BME280;63609;49.992;14.512;2024-02-21T08:05:34;98520.91;;;5.17;63.80
75039;BME280;63609;49.992;14.512;2024-02-21T08:08:03;98520.38;;;4.86;64.44
75039;BME280;63609;49.992;14.512;2024-02-21T08:10:31;98519.09;;;4.92;64.67
75039;BME280;63609;49.992;14.512;2024-02-21T08:12:58;98517.97;;;5.09;64.13
75039;BME280;63609;49.992;14.512;2024-02-21T08:15:25;98519.09;;;4.67;65.05
75039;BME280;63609;49.992;14.512;2024-02-21T08:17:56;98518.03;;;4.82;65.05
75039;BME280;63609;49.992;14.512;2024-02-21T08:20:27;98513.81;;;4.92;64.77
75039;BME280;63609;49.992;14.512;2024-02-21T08:22:54;98498.56;;;4.83;64.81
75039;BME280;63609;49.992;14.512;2024-02-21T08:25:20;98504.41;;;5.01;63.85
75039;BME280;63609;49.992;14.512;2024-02-21T08:27:47;98494.75;;;5.25;63.82
75039;BME280;63609;49.992;14.512;2024-02-21T08:30:14;98506.94;;;5.28;63.97
75039;BME280;63609;49.992;14.512;2024-02-21T08:32:41;98505.88;;;5.17;63.60
75039;BME280;63609;49.992;14.512;2024-02-21T08:35:08;98498.25;;;4.88;64.41
75039;BME280;63609;49.992;14.512;2024-02-21T08:37:35;98502.69;;;4.87;64.90
75039;BME280;63609;49.992;14.512;2024-02-21T08:40:02;98496.03;;;5.07;63.98
75039;BME280;63609;49.992;14.512;2024-02-21T08:42:36;98493.59;;;4.91;64.92
75039;BME280;63609;49.992;14.512;2024-02-21T08:45:04;98491.91;;;4.90;64.04
75039;BME280;63609;49.992;14.512;2024-02-21T08:47:30;98501.66;;;5.28;62.74
75039;BME280;63609;49.992;14.512;2024-02-21T08:49:57;98488.06;;;5.45;63.53
75039;BME280;63609;49.992;14.512;2024-02-21T08:52:26;98493.50;;;5.18;63.63
75039;BME280;63609;49.992;14.512;2024-02-21T08:54:52;98487.22;;;5.44;63.76
75039;BME280;63609;49.992;14.512;2024-02-21T08:57:20;98478.66;;;5.15;63.19
75039;BME280;63609;49.992;14.512;2024-02-21T08:59:47;98488.09;;;5.20;64.09
75039;BME280;63609;49.992;14.512;2024-02-21T09:02:14;98481.72;;;5.22;63.70
75039;BME280;63609;49.992;14.512;2024-02-21T09:04:43;98481.94;;;5.32;63.40
75039;BME280;63609;49.992;14.512;2024-02-21T09:07:13;98489.00;;;5.44;63.32
75039;BME280;63609;49.992;14.512;2024-02-21T09:09:39;98489.38;;;5.27;63.51
75039;BME280;63609;49.992;14.512;2024-02-21T09:12:07;98498.94;;;5.66;62.65
75039;BME280;63609;49.992;14.512;2024-02-21T09:14:37;98496.75;;;5.47;63.26
75039;BME280;63609;49.992;14.512;2024-02-21T09:17:07;98499.94;;;5.14;63.75
75039;BME280;63609;49.992;14.512;2024-02-21T09:19:35;98503.19;;;5.56;63.04
75039;BME280;63609;49.992;14.512;2024-02-21T09:22:02;98507.34;;;5.47;63.49
75039;BME280;63609;49.992;14.512;2024-02-21T09:24:29;98509.38;;;5.18;64.16
75039;BME280;63609;49.992;14.512;2024-02-21T09:26:56;98503.31;;;5.41;63.37
75039;BME280;63609;49.992;14.512;2024-02-21T09:29:23;98497.91;;;5.43;62.93
75039;BME280;63609;49.992;14.512;2024-02-21T09:31:53;98488.59;;;5.87;61.83
75039;BME280;63609;49.992;14.512;2024-02-21T09:34:20;98486.78;;;5.51;61.77
75039;BME280;63609;49.992;14.512;2024-02-21T09:36:47;98464.72;;;5.63;61.71
75039;BME280;63609;49.992;14.512;2024-02-21T09:39:13;98466.81;;;6.07;61.88
75039;BME280;63609;49.992;14.512;2024-02-21T09:41:49;98466.84;;;6.18;61.26
75039;BME280;63609;49.992;14.512;2024-02-21T09:44:19;98455.81;;;6.24;60.25
75039;BME280;63609;49.992;14.512;2024-02-21T09:46:55;98458.78;;;6.55;59.58
75039;BME280;63609;49.992;14.512;2024-02-21T09:52:00;98446.03;;;6.60;58.19
75039;BME280;63609;49.992;14.512;2024-02-21T09:54:29;98433.91;;;7.13;57.20
75039;BME280;63609;49.992;14.512;2024-02-21T09:56:58;98430.53;;;7.11;57.50
75039;BME280;63609;49.992;14.512;2024-02-21T09:59:24;98423.56;;;7.21;54.79
75039;BME280;63609;49.992;14.512;2024-02-21T10:01:53;98427.03;;;7.55;55.40
75039;BME280;63609;49.992;14.512;2024-02-21T10:04:20;98409.75;;;7.61;53.89
75039;BME280;63609;49.992;14.512;2024-02-21T10:06:47;98411.41;;;7.73;53.23
75039;BME280;63609;49.992;14.512;2024-02-21T10:09:25;98393.72;;;7.94;52.34
75039;BME280;63609;49.992;14.512;2024-02-21T10:12:08;98395.91;;;7.89;52.67
75039;BME280;63609;49.992;14.512;2024-02-21T10:14:36;98409.41;;;7.98;51.91
75039;BME280;63609;49.992;14.512;2024-02-21T10:17:03;98405.50;;;8.34;52.36
75039;BME280;63609;49.992;14.512;2024-02-21T10:19:31;98393.19;;;8.53;52.18
75039;BME280;63609;49.992;14.512;2024-02-21T10:22:08;98388.72;;;8.54;50.82
75039;BME280;63609;49.992;14.512;2024-02-21T10:24:35;98402.38;;;7.64;52.73
75039;BME280;63609;49.992;14.512;2024-02-21T10:27:06;98408.38;;;8.10;51.67
75039;BME280;63609;49.992;14.512;2024-02-21T10:29:39;98413.22;;;8.37;51.06
75039;BME280;63609;49.992;14.512;2024-02-21T10:32:13;98407.91;;;8.05;51.20
75039;BME280;63609;49.992;14.512;2024-02-21T10:34:41;98413.72;;;7.67;52.31
75039;BME280;63609;49.992;14.512;2024-02-21T10:37:11;98423.47;;;7.88;52.46
75039;BME280;63609;49.992;14.512;2024-02-21T10:39:39;98411.03;;;7.78;51.92
75039;BME280;63609;49.992;14.512;2024-02-21T10:42:06;98403.31;;;7.75;52.17
75039;BME280;63609;49.992;14.512;2024-02-21T10:44:38;98401.44;;;7.43;53.01
75039;BME280;63609;49.992;14.512;2024-02-21T10:47:11;98402.81;;;7.81;52.14
75039;BME280;63609;49.992;14.512;2024-02-21T10:49:41;98407.91;;;8.57;51.50
75039;BME280;63609;49.992;14.512;2024-02-21T10:55:03;98406.72;;;8.50;50.34
75039;BME280;63609;49.992;14.512;2024-02-21T10:57:34;98403.88;;;8.63;50.00
75039;BME280;63609;49.992;14.512;2024-02-21T11:00:04;98393.47;;;9.02;50.21
75039;BME280;63609;49.992;14.512;2024-02-21T11:02:35;98396.75;;;8.84;50.69
75039;BME280;63609;49.992;14.512;2024-02-21T11:05:03;98399.19;;;9.37;49.55
75039;BME280;63609;49.992;14.512;2024-02-21T11:07:35;98395.09;;;9.24;49.94
75039;BME280;63609;49.992;14.512;2024-02-21T11:10:04;98397.19;;;9.20;48.96
75039;BME280;63609;49.992;14.512;2024-02-21T11:12:33;98383.13;;;8.57;50.28
75039;BME280;63609;49.992;14.512;2024-02-21T11:15:07;98384.03;;;8.67;50.07
75039;BME280;63609;49.992;14.512;2024-02-21T11:17:34;98389.34;;;8.46;50.56
75039;BME280;63609;49.992;14.512;2024-02-21T11:20:15;98390.22;;;8.15;51.81
75039;BME280;63609;49.992;14.512;2024-02-21T11:22:42;98387.47;;;8.37;51.73
75039;BME280;63609;49.992;14.512;2024-02-21T11:25:10;98392.31;;;8.32;51.92
75039;BME280;63609;49.992;14.512;2024-02-21T11:27:45;98388.88;;;8.20;52.09
75039;BME280;63609;49.992;14.512;2024-02-21T11:30:13;98386.91;;;8.02;51.95
75039;BME280;63609;49.992;14.512;2024-02-21T11:32:41;98383.06;;;8.26;52.19
75039;BME280;63609;49.992;14.512;2024-02-21T11:35:08;98382.69;;;7.99;52.00
75039;BME280;63609;49.992;14.512;2024-02-21T11:37:36;98378.97;;;8.85;51.34
75039;BME280;63609;49.992;14.512;2024-02-21T11:40:06;98366.13;;;9.00;51.20
75039;BME280;63609;49.992;14.512;2024-02-21T11:42:38;98370.50;;;8.80;51.13
75039;BME280;63609;49.992;14.512;2024-02-21T11:45:06;98361.38;;;8.73;51.30
75039;BME280;63609;49.992;14.512;2024-02-21T11:47:35;98354.75;;;8.98;51.38
75039;BME280;63609;49.992;14.512;2024-02-21T11:50:10;98347.88;;;8.95;51.79
75039;BME280;63609;49.992;14.512;2024-02-21T11:52:38;98346.53;;;8.28;51.93
75039;BME280;63609;49.992;14.512;2024-02-21T11:55:05;98349.09;;;7.98;53.08
75039;BME280;63609;49.992;14.512;2024-02-21T11:57:35;98337.94;;;8.04;53.53
75039;BME280;63609;49.992;14.512;2024-02-21T12:00:14;98341.38;;;8.57;53.15
75039;BME280;63609;49.992;14.512;2024-02-21T12:02:43;98330.06;;;8.65;51.78
75039;BME280;63609;49.992;14.512;2024-02-21T12:05:10;98321.50;;;8.62;52.61
75039;BME280;63609;49.992;14.512;2024-02-21T12:07:37;98327.91;;;8.28;52.53
75039;BME280;63609;49.992;14.512;2024-02-21T12:10:11;98317.53;;;8.77;51.78
75039;BME280;63609;49.992;14.512;2024-02-21T12:12:39;98310.34;;;8.68;51.72
75039;BME280;63609;49.992;14.512;2024-02-21T12:15:07;98305.09;;;8.56;52.06
75039;BME280;63609;49.992;14.512;2024-02-21T12:17:35;98297.66;;;9.21;51.87
75039;BME280;63609;49.992;14.512;2024-02-21T12:20:03;98290.91;;;9.17;51.05
75039;BME280;63609;49.992;14.512;2024-02-21T12:22:37;98283.19;;;8.74;51.68
75039;BME280;63609;49.992;14.512;2024-02-21T12:25:15;98280.63;;;8.93;52.09
75039;BME280;63609;49.992;14.512;2024-02-21T12:27:45;98282.53;;;9.41;51.71
75039;BME280;63609;49.992;14.512;2024-02-21T12:30:12;98284.22;;;9.42;51.13
75039;BME280;63609;49.992;14.512;2024-02-21T12:32:39;98283.13;;;8.85;52.66
75039;BME280;63609;49.992;14.512;2024-02-21T12:35:06;98286.13;;;8.71;52.97
75039;BME280;63609;49.992;14.512;2024-02-21T12:37:33;98281.09;;;8.77;52.72
75039;BME280;63609;49.992;14.512;2024-02-21T12:40:08;98266.88;;;8.98;52.38
75039;BME280;63609;49.992;14.512;2024-02-21T12:42:35;98260.63;;;9.18;52.20
75039;BME280;63609;49.992;14.512;2024-02-21T12:45:02;98249.31;;;9.93;51.05
75039;BME280;63609;49.992;14.512;2024-02-21T12:47:30;98250.28;;;9.54;50.52
75039;BME280;63609;49.992;14.512;2024-02-21T12:49:57;98248.84;;;9.78;50.21
75039;BME280;63609;49.992;14.512;2024-02-21T12:52:24;98242.13;;;9.45;50.77
75039;BME280;63609;49.992;14.512;2024-02-21T12:54:51;98235.41;;;9.61;51.08
75039;BME280;63609;49.992;14.512;2024-02-21T12:57:18;98229.81;;;9.54;50.95
75039;BME280;63609;49.992;14.512;2024-02-21T12:59:45;98214.25;;;9.49;49.48
75039;BME280;63609;49.992;14.512;2024-02-21T13:02:11;98216.63;;;9.24;50.59
75039;BME280;63609;49.992;14.512;2024-02-21T13:04:38;98221.81;;;9.25;50.77
75039;BME280;63609;49.992;14.512;2024-02-21T13:07:07;98220.09;;;8.95;50.52
75039;BME280;63609;49.992;14.512;2024-02-21T13:09:34;98203.84;;;9.46;50.22